Tolar Grande, Argentina
Current Conditions -  °F | °C
As of 1:00 PM on Saturday 22 Nov 2014 (Local Time) from SASA Reporting Station
Overcast Overcast  
Wind Chill: 64°   Ceiling: 1800
Heat Index: 64°   Visibility: 6mi
Dew Point: 55°   Wind: 5mph
Humidity: 73%   Direction: 360°N
Pressure: 30.15"   Gusts: NA
Location:  24.59°S, 67.4°W
Report Text: SASA 221600Z 36004KT 9999 BKN018 OVC10018/13 Q1021
Loading
Personal Weather Stations






























Interactive Weather Map New forecast layout! Learn more

10-Day Weather Forecast

Advertisements
Track Severe Weather on mobile